KCNW/CNW METAR and TAF weather

Enter ICAO airport designator
Station Type Date Time Source
KCNW METAR 2018/12/12 22:50 UTC NOAA

KCNW 122250Z 19014KT 10SM SCT019 17/14 A2986


Station Type Date Time Source
KCNW Decoded METAR 2018/12/12 22:50 UTC NOAA

Station name not available
Dec 12, 2018 - 05:50 PM EST / 2018.12.12 2250 UTC
Wind: from the S (190 degrees) at 16 MPH (14 KT):0
Visibility: 10 mile(s):0
Sky conditions: partly cloudy
Temperature: 62 F (17 C)
Dew Point: 57 F (14 C)
Relative Humidity: 82%
Pressure (altimeter): 29.86 in. Hg (1011 hPa)
ob: KCNW 122250Z 19014KT 10SM SCT019 17/14 A2986
cycle: 23

Station Type Date Time Source
KCNW TAF UTC NOAA

Error!


Example: see airport list